Time;durP1;ratioP1;P1;durP2;ratioP2;P2;SDS_P1;SDS_P2;PMS_P1;PMS_P2;Temp;Humidity;BMP_temperature;BMP_pressure;BME280_temperature;BME280_humidity;BME280_pressure;Samples;Min_cycle;Max_cycle;Signal;HPM_P1;HPM_P2
2024/02/23 07:00:50;;;;;;;5.82;1.52;;;;;;;;;;4940861;28;20774;-87
2024/02/23 07:03:36;;;;;;;3.20;1.67;;;;;;;;;;4922795;28;20046;-82
2024/02/23 07:13:07;;;;;;;5.95;1.50;;;;;;;;;;5378729;23;20043;-90
2024/02/23 07:15:52;;;;;;;3.13;1.83;;;;;;;;;;4937448;28;20035;-87
2024/02/23 07:18:37;;;;;;;4.28;1.10;;;;;;;;;;4935354;28;20026;-87
2024/02/23 07:21:23;;;;;;;3.38;1.20;;;;;;;;;;4954044;28;20039;-85
2024/02/23 07:24:08;;;;;;;5.78;1.35;;;;;;;;;;4935115;28;20031;-78
2024/02/23 07:26:53;;;;;;;4.82;1.40;;;;;;;;;;4936283;28;20031;-77
2024/02/23 07:29:39;;;;;;;2.80;1.45;;;;;;;;;;4935400;29;20126;-77
2024/02/23 07:32:25;;;;;;;3.00;0.90;;;;;;;;;;4934063;28;20499;-77
2024/02/23 07:35:10;;;;;;;4.60;1.42;;;;;;;;;;4945362;28;20035;-77
2024/02/23 07:37:56;;;;;;;3.92;1.17;;;;;;;;;;4926022;28;20046;-83
2024/02/23 07:40:41;;;;;;;3.97;1.65;;;;;;;;;;4938896;28;20038;-88
2024/02/23 07:43:28;;;;;;;2.38;1.20;;;;;;;;;;4937368;28;20045;-88
2024/02/23 07:46:14;;;;;;;4.45;1.42;;;;;;;;;;4935194;28;20114;-87
2024/02/23 07:48:59;;;;;;;3.55;1.40;;;;;;;;;;4938746;28;20113;-87
2024/02/23 07:51:44;;;;;;;18.13;2.40;;;;;;;;;;4937160;28;20035;-88
2024/02/23 07:54:30;;;;;;;2.95;1.27;;;;;;;;;;4937916;28;20035;-85
2024/02/23 07:57:16;;;;;;;5.53;1.83;;;;;;;;;;4934190;28;20042;-85
2024/02/23 08:00:02;;;;;;;6.60;1.65;;;;;;;;;;4936080;29;20055;-87
2024/02/23 08:02:48;;;;;;;2.75;1.30;;;;;;;;;;4934237;28;20162;-85
2024/02/23 08:05:33;;;;;;;5.38;1.42;;;;;;;;;;4937448;28;20059;-84
2024/02/23 08:08:18;;;;;;;5.88;1.58;;;;;;;;;;4920355;28;20045;-85
2024/02/23 08:11:04;;;;;;;5.07;2.15;;;;;;;;;;4935604;28;20027;-88
2024/02/23 08:13:49;;;;;;;4.22;2.10;;;;;;;;;;4940612;28;20498;-90
2024/02/23 08:16:34;;;;;;;4.47;1.83;;;;;;;;;;4929163;28;20047;-84
2024/02/23 08:19:22;;;;;;;4.28;1.67;;;;;;;;;;4935077;28;20089;-86
2024/02/23 08:22:08;;;;;;;5.13;1.55;;;;;;;;;;4936067;28;20031;-90
2024/02/23 08:24:53;;;;;;;3.72;1.88;;;;;;;;;;4937743;28;20047;-86
2024/02/23 08:27:42;;;;;;;6.32;1.30;;;;;;;;;;4936352;28;20039;-88
2024/02/23 08:30:28;;;;;;;2.70;1.17;;;;;;;;;;4916452;28;20062;-85
2024/02/23 08:33:13;;;;;;;6.28;1.30;;;;;;;;;;4932991;28;20027;-86
2024/02/23 08:35:58;;;;;;;3.58;1.40;;;;;;;;;;4933390;28;20478;-85
2024/02/23 08:38:47;;;;;;;4.60;1.50;;;;;;;;;;4927457;28;20035;-86
2024/02/23 08:41:42;;;;;;;2.45;1.40;;;;;;;;;;4935836;28;20038;-87
2024/02/23 08:44:35;;;;;;;1.52;1.23;;;;;;;;;;4933584;28;20031;-86
2024/02/23 09:09:51;;;;;;;4.65;1.17;;;;;;;;;;4873915;28;20035;-85
2024/02/23 09:16:28;;;;;;;3.03;1.90;;;;;;;;;;4814848;29;20038;-87
2024/02/23 09:19:25;;;;;;;4.75;1.40;;;;;;;;;;4854489;29;20362;-91
2024/02/23 09:22:10;;;;;;;3.97;1.08;;;;;;;;;;4858553;29;20032;-89
2024/02/23 09:25:13;;;;;;;3.55;1.40;;;;;;;;;;4861852;29;20062;-88
2024/02/23 09:27:58;;;;;;;6.38;1.80;;;;;;;;;;4910372;29;20028;-89
2024/02/23 09:34:44;;;;;;;;;;;;;;;;;;;;;
2024/02/23 09:37:40;;;;;;;4.28;1.20;;;;;;;;;;4901358;29;20046;-88
2024/02/23 09:40:25;;;;;;;3.65;1.10;;;;;;;;;;4909325;29;20038;-87
2024/02/23 10:00:09;;;;;;;5.15;1.30;;;;;;;;;;4886470;29;20041;-82
2024/02/23 10:02:55;;;;;;;3.63;1.35;;;;;;;;;;4867861;29;20053;-84
2024/02/23 10:05:45;;;;;;;5.72;1.90;;;;;;;;;;4872365;29;20039;-91
2024/02/23 10:08:31;;;;;;;5.60;1.25;;;;;;;;;;4876259;29;20923;-89
2024/02/23 10:11:20;;;;;;;4.53;1.63;;;;;;;;;;4881646;29;20076;-87
2024/02/23 10:14:06;;;;;;;5.47;1.30;;;;;;;;;;4868022;29;20362;-91
2024/02/23 10:16:56;;;;;;;7.78;1.35;;;;;;;;;;4866414;29;20124;-88
2024/02/23 10:19:47;;;;;;;4.55;1.13;;;;;;;;;;4872520;29;20021;-91
2024/02/23 10:26:06;;;;;;;3.78;1.52;;;;;;;;;;4875028;29;20055;-90
2024/02/23 10:28:53;;;;;;;2.72;1.10;;;;;;;;;;4878435;29;20024;-90
2024/02/23 10:31:53;;;;;;;4.65;1.30;;;;;;;;;;4875179;29;20020;-92
2024/02/23 10:34:43;;;;;;;5.13;1.50;;;;;;;;;;4885942;29;20025;-92
2024/02/23 10:37:29;;;;;;;5.35;1.67;;;;;;;;;;4853013;29;20101;-85
2024/02/23 10:40:16;;;;;;;7.32;1.77;;;;;;;;;;4878564;29;20092;-87
2024/02/23 10:46:28;;;;;;;3.08;1.38;;;;;;;;;;4832937;29;20042;-88
2024/02/23 10:49:32;;;;;;;7.47;2.75;;;;;;;;;;4889012;29;20021;-91
2024/02/23 10:52:18;;;;;;;5.20;1.60;;;;;;;;;;4882077;29;20017;-87
2024/02/23 10:55:12;;;;;;;5.85;1.52;;;;;;;;;;4911094;29;20046;-86
2024/02/23 10:58:03;;;;;;;2.78;1.73;;;;;;;;;;4887387;29;20036;-86
2024/02/23 11:00:51;;;;;;;6.10;1.20;;;;;;;;;;4884242;29;20047;-87
2024/02/23 11:03:56;;;;;;;2.45;1.60;;;;;;;;;;4900925;29;20028;-89
2024/02/23 11:06:42;;;;;;;6.10;1.38;;;;;;;;;;4897004;29;20103;-89
2024/02/23 11:09:38;;;;;;;6.30;1.88;;;;;;;;;;4913647;29;20122;-90
2024/02/23 11:12:32;;;;;;;6.13;1.23;;;;;;;;;;4891002;29;20155;-91
2024/02/23 11:15:40;;;;;;;;;;;;;;;;;;;;;
2024/02/23 11:18:35;;;;;;;5.55;2.38;;;;;;;;;;4904118;29;20040;-88
2024/02/23 11:21:23;;;;;;;3.75;1.33;;;;;;;;;;4898629;29;20035;-90
2024/02/23 11:24:22;;;;;;;6.50;2.22;;;;;;;;;;4896813;29;20025;-88
2024/02/23 11:27:12;;;;;;;5.50;1.50;;;;;;;;;;4892068;29;20092;-85
2024/02/23 11:30:13;;;;;;;11.05;1.77;;;;;;;;;;4892677;29;20412;-87
2024/02/23 11:33:08;;;;;;;5.63;1.20;;;;;;;;;;4893599;29;20035;-91
2024/02/23 11:36:04;;;;;;;7.13;2.00;;;;;;;;;;4892632;29;20467;-87
2024/02/23 11:39:21;;;;;;;;;;;;;;;;;;;;;
2024/02/23 11:42:18;;;;;;;5.65;1.55;;;;;;;;;;4913684;29;20067;-88
2024/02/23 11:45:12;;;;;;;4.15;1.55;;;;;;;;;;4885231;29;20553;-86
2024/02/23 11:52:18;;;;;;;;;;;;;;;;;;;;;
2024/02/23 11:55:15;;;;;;;7.45;1.83;;;;;;;;;;4893749;29;20036;-88
2024/02/23 11:58:31;;;;;;;;;;;;;;;;;;;;;
2024/02/23 12:02:04;;;;;;;4.72;1.70;;;;;;;;;;4886482;29;20071;-89
2024/02/23 12:18:15;;;;;;;2.38;1.08;;;;;;;;;;4927646;28;20082;-88
2024/02/23 12:21:27;;;;;;;4.97;1.45;;;;;;;;;;4935041;28;20027;-88
2024/02/23 12:25:00;;;;;;;;;;;;;;;;;;;;;
2024/02/23 12:28:03;;;;;;;5.78;1.95;;;;;;;;;;4887909;29;20032;-87
2024/02/23 12:31:04;;;;;;;7.45;1.85;;;;;;;;;;4877872;29;20176;-91
2024/02/23 12:34:02;;;;;;;6.15;2.22;;;;;;;;;;4863723;29;20404;-92
2024/02/23 12:37:26;;;;;;;5.57;1.40;;;;;;;;;;4862467;29;20037;-89
2024/02/23 12:40:12;;;;;;;5.32;1.85;;;;;;;;;;4834468;29;20675;-90
2024/02/23 12:43:08;;;;;;;3.10;1.27;;;;;;;;;;4844379;29;20128;-89
2024/02/23 12:46:26;;;;;;;7.53;1.80;;;;;;;;;;4926114;23;20051;-88
2024/02/23 12:49:45;;;;;;;7.60;2.00;;;;;;;;;;4949060;28;20039;-91
2024/02/23 13:00:15;;;;;;;;;;;;;;;;;;;;;
2024/02/23 13:03:23;;;;;;;5.00;1.50;;;;;;;;;;4802615;29;20058;-92
2024/02/23 13:06:08;;;;;;;2.92;1.25;;;;;;;;;;4845313;29;20037;-88
2024/02/23 13:08:53;;;;;;;3.47;1.40;;;;;;;;;;4847701;29;20040;-88
2024/02/23 13:11:39;;;;;;;4.47;1.52;;;;;;;;;;4840125;29;20065;-88
2024/02/23 13:18:10;;;;;;;;;;;;;;;;;;;;;
2024/02/23 13:21:03;;;;;;;8.85;2.00;;;;;;;;;;4861788;29;20051;-88
2024/02/23 13:24:09;;;;;;;5.70;1.98;;;;;;;;;;4865881;29;20032;-92
2024/02/23 13:26:56;;;;;;;5.32;1.40;;;;;;;;;;4860612;29;20264;-88
2024/02/23 13:29:44;;;;;;;6.20;1.75;;;;;;;;;;4912120;29;20021;-94
2024/02/23 13:32:38;;;;;;;4.38;1.45;;;;;;;;;;4904638;28;20035;-91
2024/02/23 13:35:26;;;;;;;6.43;1.67;;;;;;;;;;4921897;29;20487;-89
2024/02/23 13:38:11;;;;;;;5.70;1.42;;;;;;;;;;4919757;29;20498;-90
2024/02/23 13:40:56;;;;;;;4.50;1.40;;;;;;;;;;4919077;29;20087;-87
2024/02/23 13:43:42;;;;;;;5.70;2.40;;;;;;;;;;4919421;29;20040;-89
2024/02/23 13:46:27;;;;;;;4.72;2.45;;;;;;;;;;4919375;29;20067;-87
2024/02/23 13:49:14;;;;;;;7.85;1.80;;;;;;;;;;4915296;29;20019;-84
2024/02/23 13:51:59;;;;;;;6.03;1.98;;;;;;;;;;4916699;29;20032;-85
2024/02/23 13:54:44;;;;;;;2.97;1.58;;;;;;;;;;4919021;29;20534;-86
2024/02/23 13:57:32;;;;;;;6.07;1.70;;;;;;;;;;4918411;29;20036;-87
2024/02/23 14:00:18;;;;;;;5.88;1.88;;;;;;;;;;4919420;29;20111;-84
2024/02/23 14:03:06;;;;;;;6.70;2.00;;;;;;;;;;4904608;29;20482;-87
2024/02/23 14:05:52;;;;;;;4.43;1.67;;;;;;;;;;4922500;29;20039;-87
2024/02/23 14:08:38;;;;;;;6.20;1.88;;;;;;;;;;4922962;29;20036;-86
2024/02/23 14:11:25;;;;;;;4.95;1.30;;;;;;;;;;4928074;28;20046;-87
2024/02/23 14:14:11;;;;;;;4.90;1.52;;;;;;;;;;4923646;29;20031;-85
2024/02/23 14:16:59;;;;;;;3.97;1.70;;;;;;;;;;4926672;29;20061;-86
2024/02/23 14:19:44;;;;;;;5.00;2.13;;;;;;;;;;4926307;28;20035;-85
2024/02/23 14:22:29;;;;;;;5.65;1.73;;;;;;;;;;4924060;29;20062;-86
2024/02/23 14:25:15;;;;;;;5.53;1.65;;;;;;;;;;4919508;29;20034;-86
2024/02/23 14:28:00;;;;;;;7.65;1.73;;;;;;;;;;4924117;29;20040;-88
2024/02/23 14:30:45;;;;;;;4.78;1.83;;;;;;;;;;4924641;29;20074;-85
2024/02/23 14:33:31;;;;;;;4.35;1.50;;;;;;;;;;4918853;29;20055;-88
2024/02/23 14:36:17;;;;;;;6.32;2.33;;;;;;;;;;4922830;29;20027;-87
2024/02/23 14:39:04;;;;;;;5.85;1.77;;;;;;;;;;4919053;29;20027;-89
2024/02/23 14:41:49;;;;;;;6.18;1.98;;;;;;;;;;4920219;29;20051;-85
2024/02/23 14:44:35;;;;;;;5.15;1.85;;;;;;;;;;4915652;29;20027;-86
2024/02/23 14:47:21;;;;;;;10.25;1.98;;;;;;;;;;4928630;29;20403;-88
2024/02/23 14:50:08;;;;;;;4.63;1.65;;;;;;;;;;4917041;29;20032;-86
2024/02/23 14:52:54;;;;;;;8.40;1.60;;;;;;;;;;4922771;29;20094;-85
2024/02/23 14:55:39;;;;;;;5.43;2.13;;;;;;;;;;4917818;29;20082;-87
2024/02/23 14:58:24;;;;;;;9.23;2.05;;;;;;;;;;4918883;29;20024;-87
2024/02/23 15:01:09;;;;;;;7.70;1.75;;;;;;;;;;4916887;29;20038;-84
2024/02/23 15:03:55;;;;;;;4.03;1.70;;;;;;;;;;4917658;29;20139;-85
2024/02/23 15:06:40;;;;;;;4.60;2.08;;;;;;;;;;4922038;29;20035;-86
2024/02/23 15:09:25;;;;;;;10.15;2.20;;;;;;;;;;4921852;28;20035;-85
2024/02/23 15:12:11;;;;;;;9.05;2.25;;;;;;;;;;4925667;29;20106;-84
2024/02/23 15:14:56;;;;;;;4.15;1.70;;;;;;;;;;4908956;29;20556;-85
2024/02/23 15:17:42;;;;;;;6.95;1.80;;;;;;;;;;4918063;29;20048;-85
2024/02/23 15:20:27;;;;;;;3.53;1.40;;;;;;;;;;4927714;29;20086;-85
2024/02/23 15:23:13;;;;;;;3.58;1.50;;;;;;;;;;4927417;29;20063;-86
2024/02/23 15:25:58;;;;;;;6.28;2.40;;;;;;;;;;4917431;29;20043;-86
2024/02/23 15:28:44;;;;;;;4.72;1.50;;;;;;;;;;4922169;29;20032;-87
2024/02/23 15:31:29;;;;;;;5.43;1.77;;;;;;;;;;4916543;29;20055;-86
2024/02/23 15:34:14;;;;;;;5.60;2.05;;;;;;;;;;4914818;29;20518;-87
2024/02/23 15:37:00;;;;;;;6.03;1.88;;;;;;;;;;4919932;29;20095;-86
2024/02/23 15:39:48;;;;;;;4.88;2.63;;;;;;;;;;4909232;29;20103;-87
2024/02/23 15:42:35;;;;;;;6.18;2.28;;;;;;;;;;4912812;29;20062;-88
2024/02/23 15:45:23;;;;;;;6.88;2.28;;;;;;;;;;4922670;28;20031;-88
2024/02/23 15:48:09;;;;;;;8.20;3.35;;;;;;;;;;4921851;29;20027;-87
2024/02/23 15:50:57;;;;;;;8.43;1.85;;;;;;;;;;4916009;29;20033;-87
2024/02/23 15:53:45;;;;;;;5.13;1.98;;;;;;;;;;4926234;29;20107;-87
2024/02/23 15:56:34;;;;;;;6.90;2.28;;;;;;;;;;4933812;28;20042;-87
2024/02/23 15:59:19;;;;;;;7.35;1.70;;;;;;;;;;4930225;29;20075;-87
2024/02/23 16:02:06;;;;;;;5.22;1.60;;;;;;;;;;4925981;29;20027;-86
2024/02/23 16:04:52;;;;;;;5.40;1.60;;;;;;;;;;4944812;28;20027;-85
2024/02/23 16:07:37;;;;;;;7.63;2.30;;;;;;;;;;4932285;29;20034;-86
2024/02/23 16:10:22;;;;;;;5.95;2.03;;;;;;;;;;4935202;28;20023;-86
2024/02/23 16:13:08;;;;;;;6.20;1.80;;;;;;;;;;4931968;29;20110;-85
2024/02/23 16:15:54;;;;;;;4.22;1.33;;;;;;;;;;4928601;29;20038;-84
2024/02/23 16:18:39;;;;;;;6.50;2.30;;;;;;;;;;4929373;28;20360;-84
2024/02/23 16:21:25;;;;;;;6.22;1.50;;;;;;;;;;4928577;29;20023;-86
2024/02/23 16:24:13;;;;;;;6.88;2.00;;;;;;;;;;4936070;28;20090;-85
2024/02/23 16:27:20;;;;;;;6.80;2.10;;;;;;;;;;4944574;29;20027;-84
2024/02/23 16:30:06;;;;;;;6.43;2.13;;;;;;;;;;4908885;29;20082;-85
2024/02/23 16:32:53;;;;;;;9.95;2.83;;;;;;;;;;4912337;29;20039;-85
2024/02/23 16:35:40;;;;;;;7.18;1.92;;;;;;;;;;4906811;29;20023;-90
2024/02/23 16:38:26;;;;;;;7.50;1.35;;;;;;;;;;4914505;29;20118;-85
2024/02/23 16:41:12;;;;;;;2.95;1.30;;;;;;;;;;4909589;29;20024;-87
2024/02/23 16:43:57;;;;;;;5.57;2.10;;;;;;;;;;4914112;29;20022;-89
2024/02/23 16:46:42;;;;;;;10.98;2.30;;;;;;;;;;4915083;29;20125;-89
2024/02/23 16:49:28;;;;;;;7.53;2.42;;;;;;;;;;4920708;29;20063;-88
2024/02/23 16:52:13;;;;;;;7.07;2.00;;;;;;;;;;4928516;29;20611;-86
2024/02/23 16:54:59;;;;;;;7.03;2.08;;;;;;;;;;4912597;29;20024;-86
2024/02/23 16:57:45;;;;;;;5.28;1.90;;;;;;;;;;4903334;29;20055;-87
2024/02/23 17:00:31;;;;;;;6.55;1.75;;;;;;;;;;4915542;29;20119;-87
2024/02/23 17:03:16;;;;;;;8.10;2.45;;;;;;;;;;4906808;29;20024;-87
2024/02/23 17:06:05;;;;;;;7.07;2.65;;;;;;;;;;4922721;28;20023;-86
2024/02/23 17:08:53;;;;;;;9.57;3.38;;;;;;;;;;4943341;28;20069;-87
2024/02/23 17:11:38;;;;;;;5.85;3.25;;;;;;;;;;4915966;29;20036;-89
2024/02/23 17:14:27;;;;;;;9.50;2.22;;;;;;;;;;4906661;29;20058;-88
2024/02/23 17:17:13;;;;;;;11.57;3.63;;;;;;;;;;4936818;29;20114;-88
2024/02/23 17:20:07;;;;;;;6.03;2.75;;;;;;;;;;4914702;29;20026;-88
2024/02/23 17:22:52;;;;;;;9.35;2.92;;;;;;;;;;4931124;29;20396;-88
2024/02/23 17:25:38;;;;;;;6.85;3.30;;;;;;;;;;4920083;29;20059;-88
2024/02/23 17:28:31;;;;;;;8.18;3.15;;;;;;;;;;4911703;29;20016;-90
2024/02/23 17:31:16;;;;;;;10.02;2.97;;;;;;;;;;4922840;29;20020;-88
2024/02/23 17:34:04;;;;;;;7.97;3.58;;;;;;;;;;4924602;29;20020;-87
2024/02/23 17:36:49;;;;;;;9.75;4.45;;;;;;;;;;4916961;29;20035;-88
2024/02/23 17:39:37;;;;;;;7.22;2.60;;;;;;;;;;4913837;29;20083;-89
2024/02/23 17:42:22;;;;;;;8.90;3.28;;;;;;;;;;4901328;29;20031;-86
2024/02/23 17:45:11;;;;;;;7.32;2.97;;;;;;;;;;4914888;29;20024;-87
2024/02/23 17:47:56;;;;;;;6.03;1.95;;;;;;;;;;4915164;29;20381;-85
2024/02/23 17:50:41;;;;;;;7.00;2.20;;;;;;;;;;4897200;28;20031;-85
2024/02/23 17:53:27;;;;;;;10.77;2.63;;;;;;;;;;4922886;29;20118;-86
2024/02/23 17:56:14;;;;;;;7.38;3.25;;;;;;;;;;4915798;29;20028;-90
2024/02/23 17:59:00;;;;;;;11.20;3.95;;;;;;;;;;4916441;29;20174;-88
2024/02/23 18:01:45;;;;;;;10.20;3.25;;;;;;;;;;4914940;29;20026;-86
2024/02/23 18:04:31;;;;;;;13.50;2.50;;;;;;;;;;4915475;29;20024;-87
2024/02/23 18:07:16;;;;;;;8.32;2.70;;;;;;;;;;4920486;29;20027;-87
2024/02/23 18:10:02;;;;;;;11.93;2.95;;;;;;;;;;4916992;29;20094;-86
2024/02/23 18:12:47;;;;;;;7.05;2.20;;;;;;;;;;4922652;28;20067;-88
2024/02/23 18:15:54;;;;;;;7.95;2.13;;;;;;;;;;4913930;29;20066;-86
2024/02/23 18:18:39;;;;;;;10.55;3.08;;;;;;;;;;4911820;29;20193;-85
2024/02/23 18:21:24;;;;;;;7.82;2.38;;;;;;;;;;4916665;29;20027;-84
2024/02/23 18:24:09;;;;;;;6.85;2.58;;;;;;;;;;4924273;29;20063;-85
2024/02/23 18:26:54;;;;;;;38.67;16.48;;;;;;;;;;4906547;29;20483;-84
2024/02/23 18:29:41;;;;;;;17.27;8.68;;;;;;;;;;4918391;29;20040;-85
2024/02/23 18:32:29;;;;;;;10.77;3.50;;;;;;;;;;4917856;29;20023;-85
2024/02/23 18:35:14;;;;;;;6.30;2.50;;;;;;;;;;4920060;29;20546;-85
2024/02/23 18:37:59;;;;;;;8.63;2.97;;;;;;;;;;4914925;29;20043;-85
2024/02/23 18:40:45;;;;;;;7.40;2.42;;;;;;;;;;4914135;29;20418;-84
2024/02/23 18:43:33;;;;;;;7.97;3.28;;;;;;;;;;4914364;29;20118;-84
2024/02/23 18:46:18;;;;;;;8.85;2.60;;;;;;;;;;4914338;29;20070;-86
2024/02/23 18:49:04;;;;;;;8.30;2.90;;;;;;;;;;4915071;29;20032;-84
2024/02/23 18:51:50;;;;;;;10.10;3.30;;;;;;;;;;4915359;29;20392;-84
2024/02/23 18:54:36;;;;;;;7.15;2.67;;;;;;;;;;4918937;29;20617;-84
2024/02/23 18:57:21;;;;;;;4.35;2.03;;;;;;;;;;4931018;28;20107;-85
2024/02/23 19:00:07;;;;;;;8.57;3.03;;;;;;;;;;4921112;29;20028;-83
2024/02/23 19:02:52;;;;;;;5.82;2.80;;;;;;;;;;4921982;29;20028;-79
2024/02/23 19:05:39;;;;;;;7.70;2.92;;;;;;;;;;4924180;29;20058;-78
2024/02/23 19:08:25;;;;;;;7.53;2.80;;;;;;;;;;4926586;29;20063;-78
2024/02/23 19:11:10;;;;;;;17.05;6.50;;;;;;;;;;4931661;29;20474;-79
2024/02/23 19:13:56;;;;;;;8.18;3.08;;;;;;;;;;4925772;29;20062;-82
2024/02/23 19:16:41;;;;;;;8.32;3.35;;;;;;;;;;4923619;29;20035;-83
2024/02/23 19:19:26;;;;;;;9.18;3.40;;;;;;;;;;4931768;28;20114;-82
2024/02/23 19:22:12;;;;;;;8.75;3.00;;;;;;;;;;4930706;29;20447;-82
2024/02/23 19:24:57;;;;;;;10.93;3.03;;;;;;;;;;4923755;28;20027;-83
2024/02/23 19:27:42;;;;;;;6.53;2.15;;;;;;;;;;4926005;29;20036;-83
2024/02/23 19:30:28;;;;;;;7.10;2.65;;;;;;;;;;4927586;29;20428;-82
2024/02/23 19:33:14;;;;;;;7.00;2.50;;;;;;;;;;4917660;29;20078;-83
2024/02/23 19:35:59;;;;;;;9.88;4.40;;;;;;;;;;4923162;29;20551;-83
2024/02/23 19:38:46;;;;;;;10.63;3.80;;;;;;;;;;4918495;29;20470;-83
2024/02/23 19:41:31;;;;;;;14.30;4.78;;;;;;;;;;4920120;29;20023;-82
2024/02/23 19:44:17;;;;;;;9.95;4.38;;;;;;;;;;4917835;29;20027;-83
2024/02/23 19:47:02;;;;;;;8.82;3.92;;;;;;;;;;4919300;29;20105;-84
2024/02/23 19:49:47;;;;;;;6.85;3.42;;;;;;;;;;4922287;29;20388;-84
2024/02/23 19:52:33;;;;;;;8.35;3.60;;;;;;;;;;4916003;29;20131;-84
2024/02/23 19:55:18;;;;;;;7.60;3.78;;;;;;;;;;4924731;29;20027;-84
2024/02/23 19:58:03;;;;;;;6.60;2.50;;;;;;;;;;4916033;29;20169;-83
2024/02/23 20:00:48;;;;;;;9.80;2.70;;;;;;;;;;4916138;29;20039;-83
2024/02/23 20:03:34;;;;;;;5.05;2.50;;;;;;;;;;4917123;29;20028;-83
2024/02/23 20:06:19;;;;;;;6.15;2.45;;;;;;;;;;4921402;29;20328;-83
2024/02/23 20:09:05;;;;;;;8.93;2.90;;;;;;;;;;4902368;29;20043;-86
2024/02/23 20:11:50;;;;;;;6.65;2.22;;;;;;;;;;4924311;29;20042;-84
2024/02/23 20:14:35;;;;;;;4.72;2.40;;;;;;;;;;4920077;29;20027;-86
2024/02/23 20:17:21;;;;;;;8.27;3.22;;;;;;;;;;4924579;28;20027;-85
2024/02/23 20:20:07;;;;;;;8.00;3.17;;;;;;;;;;4925318;29;20032;-87
2024/02/23 20:22:52;;;;;;;7.22;3.35;;;;;;;;;;4920548;29;20074;-85
2024/02/23 20:25:40;;;;;;;7.05;2.63;;;;;;;;;;4922715;29;20518;-85
2024/02/23 20:28:25;;;;;;;7.60;2.92;;;;;;;;;;4920515;29;20032;-88
2024/02/23 20:31:11;;;;;;;7.57;3.35;;;;;;;;;;4917691;29;20046;-87
2024/02/23 20:33:56;;;;;;;7.28;3.08;;;;;;;;;;4929008;29;20319;-86
2024/02/23 20:36:41;;;;;;;7.20;3.22;;;;;;;;;;4929645;29;20068;-82
2024/02/23 20:39:38;;;;;;;8.88;3.75;;;;;;;;;;4920501;29;20164;-83
2024/02/23 20:42:32;;;;;;;10.68;3.65;;;;;;;;;;4897588;29;20456;-85
2024/02/23 20:45:16;;;;;;;7.28;3.33;;;;;;;;;;4890396;29;20042;-84
2024/02/23 20:48:04;;;;;;;8.82;3.95;;;;;;;;;;4918115;29;20037;-85
2024/02/23 20:51:03;;;;;;;12.93;4.60;;;;;;;;;;4913067;29;20031;-84
2024/02/23 20:56:55;;;;;;;8.73;3.10;;;;;;;;;;4883748;29;20059;-83
2024/02/23 20:59:42;;;;;;;7.65;2.97;;;;;;;;;;4922859;28;20039;-85
2024/02/23 21:02:28;;;;;;;6.88;3.15;;;;;;;;;;4922367;29;20091;-85
2024/02/23 21:05:15;;;;;;;9.77;3.08;;;;;;;;;;4928629;29;20023;-84
2024/02/23 21:08:05;;;;;;;7.97;3.28;;;;;;;;;;4920641;28;20042;-84
2024/02/23 21:10:50;;;;;;;10.23;4.20;;;;;;;;;;4918675;29;20582;-85
2024/02/23 21:13:36;;;;;;;11.07;4.20;;;;;;;;;;4921616;29;20027;-83
2024/02/23 21:16:21;;;;;;;11.02;5.03;;;;;;;;;;4915773;29;20039;-85
2024/02/23 21:19:07;;;;;;;11.70;4.45;;;;;;;;;;4923519;29;20031;-84
2024/02/23 21:21:52;;;;;;;10.40;4.20;;;;;;;;;;4916171;29;20024;-85
2024/02/23 21:24:44;;;;;;;8.82;3.75;;;;;;;;;;4921786;29;20139;-84
2024/02/23 21:27:29;;;;;;;8.90;3.75;;;;;;;;;;4921207;29;20042;-84
2024/02/23 21:30:15;;;;;;;10.43;4.30;;;;;;;;;;4923378;29;20120;-86
2024/02/23 21:33:00;;;;;;;11.02;3.67;;;;;;;;;;4932566;28;20402;-86
2024/02/23 21:35:46;;;;;;;10.68;4.53;;;;;;;;;;4927605;29;20036;-87
2024/02/23 21:38:31;;;;;;;11.48;4.38;;;;;;;;;;4922673;29;20062;-87
2024/02/23 21:41:19;;;;;;;11.18;4.30;;;;;;;;;;4914537;29;20067;-84
2024/02/23 21:44:05;;;;;;;9.68;3.58;;;;;;;;;;4916195;29;20028;-86
2024/02/23 21:46:50;;;;;;;10.50;4.05;;;;;;;;;;4909215;29;20047;-84
2024/02/23 21:49:37;;;;;;;7.65;3.47;;;;;;;;;;4895420;29;20176;-85
2024/02/23 21:52:22;;;;;;;10.18;3.95;;;;;;;;;;4912544;29;20050;-85
2024/02/23 21:55:07;;;;;;;8.13;3.50;;;;;;;;;;4925882;28;20031;-84
2024/02/23 21:57:53;;;;;;;9.07;4.15;;;;;;;;;;4922801;29;20042;-85
2024/02/23 22:00:38;;;;;;;10.98;4.75;;;;;;;;;;4922080;29;20034;-85
2024/02/23 22:03:24;;;;;;;9.52;4.38;;;;;;;;;;4921506;29;20062;-85
2024/02/23 22:06:10;;;;;;;14.57;4.07;;;;;;;;;;4930860;29;20067;-85
2024/02/23 22:08:55;;;;;;;6.72;3.80;;;;;;;;;;4918975;29;20039;-85
2024/02/23 22:11:40;;;;;;;8.57;3.55;;;;;;;;;;4918303;29;20038;-85
2024/02/23 22:14:26;;;;;;;9.40;3.83;;;;;;;;;;4918789;29;20425;-85
2024/02/23 22:17:11;;;;;;;11.43;3.75;;;;;;;;;;4927133;29;20122;-85
2024/02/23 22:19:56;;;;;;;8.88;3.67;;;;;;;;;;4924851;29;20027;-85
2024/02/23 22:22:41;;;;;;;6.90;3.47;;;;;;;;;;4922166;28;20015;-84
2024/02/23 22:25:27;;;;;;;7.50;4.10;;;;;;;;;;4925995;29;20030;-84
2024/02/23 22:28:12;;;;;;;10.95;4.60;;;;;;;;;;4930695;29;20467;-85
2024/02/23 22:30:57;;;;;;;8.27;3.95;;;;;;;;;;4922851;29;20568;-85
2024/02/23 22:33:43;;;;;;;10.27;3.90;;;;;;;;;;4920155;29;20106;-85
2024/02/23 22:36:28;;;;;;;10.40;4.05;;;;;;;;;;4919651;29;20039;-85
2024/02/23 22:39:14;;;;;;;6.82;3.55;;;;;;;;;;4919515;29;20070;-83
2024/02/23 22:42:00;;;;;;;7.05;3.70;;;;;;;;;;4922462;29;20030;-83
2024/02/23 22:44:46;;;;;;;16.08;4.20;;;;;;;;;;4925690;29;20035;-83
2024/02/23 22:47:31;;;;;;;12.60;4.32;;;;;;;;;;4924726;28;20133;-83
2024/02/23 22:50:17;;;;;;;9.38;3.67;;;;;;;;;;4932320;29;20034;-84
2024/02/23 22:53:04;;;;;;;8.27;3.67;;;;;;;;;;4922362;29;20086;-83
2024/02/23 22:55:50;;;;;;;7.93;3.28;;;;;;;;;;4920589;29;20035;-83
2024/02/23 22:58:35;;;;;;;7.30;3.13;;;;;;;;;;4920684;29;20048;-83
2024/02/23 23:01:20;;;;;;;6.53;2.85;;;;;;;;;;4931829;29;20125;-84
2024/02/23 23:04:06;;;;;;;13.02;3.92;;;;;;;;;;4920834;29;20162;-84
2024/02/23 23:06:52;;;;;;;7.10;3.08;;;;;;;;;;4918388;29;20038;-84
2024/02/23 23:09:37;;;;;;;9.88;4.18;;;;;;;;;;4919701;29;20031;-85
2024/02/23 23:12:22;;;;;;;5.65;3.10;;;;;;;;;;4928982;28;20102;-84
2024/02/23 23:15:08;;;;;;;10.95;3.30;;;;;;;;;;4923421;29;20026;-85
2024/02/23 23:17:53;;;;;;;7.70;3.25;;;;;;;;;;4918578;29;20082;-85
2024/02/23 23:20:39;;;;;;;6.82;3.45;;;;;;;;;;4924302;29;20495;-84
2024/02/23 23:23:27;;;;;;;8.57;3.92;;;;;;;;;;4926237;28;20398;-84
2024/02/23 23:26:12;;;;;;;11.23;3.40;;;;;;;;;;4926776;29;20019;-83
2024/02/23 23:28:57;;;;;;;8.73;3.05;;;;;;;;;;4927122;28;20019;-85
2024/02/23 23:31:43;;;;;;;8.57;3.88;;;;;;;;;;4923407;29;20352;-85
2024/02/23 23:34:28;;;;;;;8.50;3.80;;;;;;;;;;4932611;29;20023;-84
2024/02/23 23:37:13;;;;;;;7.35;3.35;;;;;;;;;;4926553;29;20127;-84
2024/02/23 23:39:58;;;;;;;9.35;3.08;;;;;;;;;;4921875;29;20127;-84
2024/02/23 23:42:43;;;;;;;7.00;3.00;;;;;;;;;;4927305;29;20023;-84
2024/02/23 23:45:32;;;;;;;7.82;3.67;;;;;;;;;;4928625;29;20039;-86
2024/02/23 23:48:17;;;;;;;9.55;3.30;;;;;;;;;;4924706;28;20123;-85
2024/02/23 23:51:02;;;;;;;7.70;3.10;;;;;;;;;;4921303;29;20027;-85
2024/02/23 23:53:54;;;;;;;6.20;2.75;;;;;;;;;;4927113;29;20098;-85
2024/02/23 23:56:47;;;;;;;5.55;3.25;;;;;;;;;;4923245;29;20395;-84
2024/02/23 23:59:32;;;;;;;9.70;2.90;;;;;;;;;;4926680;29;20103;-84
